sensor_id;sensor_type;location;lat;lon;timestamp;pressure;altitude;pressure_sealevel;temperature;humidity
45467;BME280;31212;49.734;8.490;2023-06-26T00:01:44;100280.50;;;18.64;70.47
45467;BME280;31212;49.734;8.490;2023-06-26T00:04:11;100277.94;;;18.63;70.56
45467;BME280;31212;49.734;8.490;2023-06-26T00:06:40;100272.81;;;18.58;70.54
45467;BME280;31212;49.734;8.490;2023-06-26T00:09:07;100277.63;;;18.45;70.74
45467;BME280;31212;49.734;8.490;2023-06-26T00:11:33;100282.09;;;18.42;70.64
45467;BME280;31212;49.734;8.490;2023-06-26T00:14:01;100285.84;;;18.35;71.07
45467;BME280;31212;49.734;8.490;2023-06-26T00:16:28;100312.19;;;18.33;71.58
45467;BME280;31212;49.734;8.490;2023-06-26T00:18:56;100309.66;;;18.28;71.89
45467;BME280;31212;49.734;8.490;2023-06-26T00:21:23;100315.94;;;18.24;72.02
45467;BME280;31212;49.734;8.490;2023-06-26T00:23:50;100327.38;;;18.22;72.57
45467;BME280;31212;49.734;8.490;2023-06-26T00:26:17;100315.28;;;18.16;72.26
45467;BME280;31212;49.734;8.490;2023-06-26T00:28:43;100317.06;;;18.15;72.16
45467;BME280;31212;49.734;8.490;2023-06-26T00:31:11;100327.59;;;18.15;72.88
45467;BME280;31212;49.734;8.490;2023-06-26T00:33:37;100313.72;;;18.10;72.69
45467;BME280;31212;49.734;8.490;2023-06-26T00:36:04;100315.63;;;18.05;72.46
45467;BME280;31212;49.734;8.490;2023-06-26T00:38:31;100319.19;;;18.03;73.21
45467;BME280;31212;49.734;8.490;2023-06-26T00:40:57;100332.31;;;18.03;73.60
45467;BME280;31212;49.734;8.490;2023-06-26T00:43:24;100327.03;;;18.04;73.50
45467;BME280;31212;49.734;8.490;2023-06-26T00:45:50;100337.59;;;18.03;74.28
45467;BME280;31212;49.734;8.490;2023-06-26T00:48:20;100341.19;;;17.98;74.59
45467;BME280;31212;49.734;8.490;2023-06-26T00:50:46;100344.81;;;17.94;74.78
45467;BME280;31212;49.734;8.490;2023-06-26T00:53:13;100330.88;;;17.92;74.50
45467;BME280;31212;49.734;8.490;2023-06-26T00:55:39;100317.00;;;17.87;73.91
45467;BME280;31212;49.734;8.490;2023-06-26T00:58:08;100302.97;;;17.87;73.64
45467;BME280;31212;49.734;8.490;2023-06-26T01:00:34;100303.81;;;17.89;73.68
45467;BME280;31212;49.734;8.490;2023-06-26T01:03:01;100304.91;;;17.81;74.08
45467;BME280;31212;49.734;8.490;2023-06-26T01:05:29;100311.41;;;17.68;74.51
45467;BME280;31212;49.734;8.490;2023-06-26T01:07:57;100318.59;;;17.61;74.80
45467;BME280;31212;49.734;8.490;2023-06-26T01:10:24;100316.16;;;17.54;74.82
45467;BME280;31212;49.734;8.490;2023-06-26T01:12:52;100327.00;;;17.41;75.41
45467;BME280;31212;49.734;8.490;2023-06-26T01:15:19;100328.97;;;17.31;75.91
45467;BME280;31212;49.734;8.490;2023-06-26T01:17:46;100334.25;;;17.30;76.21
45467;BME280;31212;49.734;8.490;2023-06-26T01:20:14;100331.03;;;17.20;76.40
45467;BME280;31212;49.734;8.490;2023-06-26T01:22:48;100320.50;;;17.22;76.58
45467;BME280;31212;49.734;8.490;2023-06-26T01:25:26;100329.25;;;17.22;76.85
45467;BME280;31212;49.734;8.490;2023-06-26T01:27:57;100334.63;;;17.16;76.77
45467;BME280;31212;49.734;8.490;2023-06-26T01:30:25;100336.59;;;17.08;77.27
45467;BME280;31212;49.734;8.490;2023-06-26T01:32:52;100351.44;;;17.09;77.51
45467;BME280;31212;49.734;8.490;2023-06-26T01:35:21;100338.31;;;17.09;78.04
45467;BME280;31212;49.734;8.490;2023-06-26T01:37:47;100333.13;;;17.07;78.58
45467;BME280;31212;49.734;8.490;2023-06-26T01:40:14;100331.38;;;17.06;78.49
45467;BME280;31212;49.734;8.490;2023-06-26T01:42:40;100325.97;;;17.12;78.29
45467;BME280;31212;49.734;8.490;2023-06-26T01:45:13;100318.19;;;17.09;77.95
45467;BME280;31212;49.734;8.490;2023-06-26T01:47:44;100323.47;;;17.08;78.27
45467;BME280;31212;49.734;8.490;2023-06-26T01:50:18;100327.81;;;17.09;78.51
45467;BME280;31212;49.734;8.490;2023-06-26T01:52:49;100332.28;;;17.05;78.49
45467;BME280;31212;49.734;8.490;2023-06-26T01:55:23;100323.53;;;17.06;78.43
45467;BME280;31212;49.734;8.490;2023-06-26T01:57:53;100314.97;;;16.98;78.69
45467;BME280;31212;49.734;8.490;2023-06-26T02:00:24;100323.78;;;16.95;78.45
45467;BME280;31212;49.734;8.490;2023-06-26T02:02:51;100329.03;;;16.95;79.29
45467;BME280;31212;49.734;8.490;2023-06-26T02:05:18;100324.56;;;16.99;79.23
45467;BME280;31212;49.734;8.490;2023-06-26T02:07:44;100318.50;;;16.97;78.85
45467;BME280;31212;49.734;8.490;2023-06-26T02:10:11;100315.88;;;16.97;78.95
45467;BME280;31212;49.734;8.490;2023-06-26T02:12:39;100320.28;;;16.96;79.41
45467;BME280;31212;49.734;8.490;2023-06-26T02:15:07;100327.38;;;16.91;78.96
45467;BME280;31212;49.734;8.490;2023-06-26T02:17:35;100331.78;;;16.89;79.14
45467;BME280;31212;49.734;8.490;2023-06-26T02:20:02;100330.22;;;16.80;78.99
45467;BME280;31212;49.734;8.490;2023-06-26T02:22:29;100333.06;;;16.71;79.26
45467;BME280;31212;49.734;8.490;2023-06-26T02:24:55;100335.88;;;16.63;79.91
45467;BME280;31212;49.734;8.490;2023-06-26T02:27:22;100342.13;;;16.58;80.17
45467;BME280;31212;49.734;8.490;2023-06-26T02:29:48;100354.31;;;16.59;80.85
45467;BME280;31212;49.734;8.490;2023-06-26T02:32:15;100350.78;;;16.61;80.98
45467;BME280;31212;49.734;8.490;2023-06-26T02:34:43;100345.53;;;16.61;80.90
45467;BME280;31212;49.734;8.490;2023-06-26T02:37:09;100336.97;;;16.53;80.88
45467;BME280;31212;49.734;8.490;2023-06-26T02:39:36;100342.34;;;16.47;81.00
45467;BME280;31212;49.734;8.490;2023-06-26T02:42:03;100350.22;;;16.47;81.00
45467;BME280;31212;49.734;8.490;2023-06-26T02:44:30;100341.56;;;16.43;81.30
45467;BME280;31212;49.734;8.490;2023-06-26T02:46:56;100349.50;;;16.40;81.76
45467;BME280;31212;49.734;8.490;2023-06-26T02:49:23;100347.69;;;16.44;81.50
45467;BME280;31212;49.734;8.490;2023-06-26T02:51:50;100350.28;;;16.44;82.32
45467;BME280;31212;49.734;8.490;2023-06-26T02:54:23;100351.19;;;16.43;82.24
45467;BME280;31212;49.734;8.490;2023-06-26T02:56:53;100355.53;;;16.42;82.41
45467;BME280;31212;49.734;8.490;2023-06-26T02:59:25;100346.72;;;16.46;82.38
45467;BME280;31212;49.734;8.490;2023-06-26T03:01:53;100336.22;;;16.48;81.46
45467;BME280;31212;49.734;8.490;2023-06-26T03:04:25;100342.41;;;16.45;82.02
45467;BME280;31212;49.734;8.490;2023-06-26T03:06:53;100345.94;;;16.43;81.78
45467;BME280;31212;49.734;8.490;2023-06-26T03:09:20;100353.84;;;16.41;82.31
45467;BME280;31212;49.734;8.490;2023-06-26T03:11:48;100352.19;;;16.37;82.44
45467;BME280;31212;49.734;8.490;2023-06-26T03:14:15;100345.19;;;16.38;82.22
45467;BME280;31212;49.734;8.490;2023-06-26T03:16:42;100354.03;;;16.32;81.92
45467;BME280;31212;49.734;8.490;2023-06-26T03:19:09;100352.34;;;16.29;81.75
45467;BME280;31212;49.734;8.490;2023-06-26T03:21:57;100351.50;;;16.27;82.00
45467;BME280;31212;49.734;8.490;2023-06-26T03:24:23;100369.22;;;16.16;83.05
45467;BME280;31212;49.734;8.490;2023-06-26T03:26:50;100365.00;;;16.09;82.59
45467;BME280;31212;49.734;8.490;2023-06-26T03:29:16;100350.19;;;16.08;82.57
45467;BME280;31212;49.734;8.490;2023-06-26T03:31:43;100359.16;;;15.94;82.65
45467;BME280;31212;49.734;8.490;2023-06-26T03:34:10;100368.97;;;15.85;83.68
45467;BME280;31212;49.734;8.490;2023-06-26T03:36:36;100368.97;;;15.85;83.70
45467;BME280;31212;49.734;8.490;2023-06-26T03:39:05;100369.88;;;15.82;83.64
45467;BME280;31212;49.734;8.490;2023-06-26T03:41:31;100359.38;;;15.84;83.87
45467;BME280;31212;49.734;8.490;2023-06-26T03:43:58;100368.06;;;15.87;83.94
45467;BME280;31212;49.734;8.490;2023-06-26T03:46:30;100367.09;;;15.91;83.90
45467;BME280;31212;49.734;8.490;2023-06-26T03:48:57;100365.38;;;15.90;84.11
45467;BME280;31212;49.734;8.490;2023-06-26T03:51:24;100370.63;;;15.89;84.17
45467;BME280;31212;49.734;8.490;2023-06-26T03:53:50;100371.44;;;15.91;84.11
45467;BME280;31212;49.734;8.490;2023-06-26T03:56:18;100376.56;;;15.97;84.29
45467;BME280;31212;49.734;8.490;2023-06-26T03:58:44;100370.38;;;16.01;84.12
45467;BME280;31212;49.734;8.490;2023-06-26T04:01:11;100364.13;;;16.08;83.41
45467;BME280;31212;49.734;8.490;2023-06-26T04:03:37;100350.81;;;16.19;83.08
45467;BME280;31212;49.734;8.490;2023-06-26T04:06:04;100339.31;;;16.26;82.04
45467;BME280;31212;49.734;8.490;2023-06-26T04:08:32;100336.59;;;16.31;81.98
45467;BME280;31212;49.734;8.490;2023-06-26T04:10:58;100335.53;;;16.40;81.85
45467;BME280;31212;49.734;8.490;2023-06-26T04:13:26;100311.63;;;16.54;81.04
45467;BME280;31212;49.734;8.490;2023-06-26T04:15:53;100306.47;;;16.51;80.24
45467;BME280;31212;49.734;8.490;2023-06-26T04:18:19;100314.22;;;16.55;80.18
45467;BME280;31212;49.734;8.490;2023-06-26T04:21:04;100305.25;;;16.65;79.84
45467;BME280;31212;49.734;8.490;2023-06-26T04:23:31;100310.44;;;16.67;79.54
45467;BME280;31212;49.734;8.490;2023-06-26T04:25:58;100305.97;;;16.72;79.42
45467;BME280;31212;49.734;8.490;2023-06-26T04:28:26;100294.38;;;16.81;78.65
45467;BME280;31212;49.734;8.490;2023-06-26T04:30:53;100274.94;;;16.91;78.21
45467;BME280;31212;49.734;8.490;2023-06-26T04:33:19;100258.00;;;17.03;77.56
45467;BME280;31212;49.734;8.490;2023-06-26T04:35:46;100230.59;;;17.15;75.92
45467;BME280;31212;49.734;8.490;2023-06-26T04:38:14;100219.75;;;17.29;75.43
45467;BME280;31212;49.734;8.490;2023-06-26T04:40:40;100208.94;;;17.40;74.75
45467;BME280;31212;49.734;8.490;2023-06-26T04:43:07;100185.72;;;17.56;73.89
45467;BME280;31212;49.734;8.490;2023-06-26T04:45:35;100176.56;;;17.69;73.37
45467;BME280;31212;49.734;8.490;2023-06-26T04:48:02;100177.88;;;17.84;73.16
45467;BME280;31212;49.734;8.490;2023-06-26T04:50:30;100181.97;;;17.94;72.88
45467;BME280;31212;49.734;8.490;2023-06-26T04:52:56;100172.66;;;18.12;72.11
45467;BME280;31212;49.734;8.490;2023-06-26T04:55:24;100150.31;;;18.26;71.69
45467;BME280;31212;49.734;8.490;2023-06-26T04:57:50;100144.81;;;18.33;71.29
45467;BME280;31212;49.734;8.490;2023-06-26T05:00:17;100132.81;;;18.52;70.84
45467;BME280;31212;49.734;8.490;2023-06-26T05:02:45;100133.22;;;18.66;70.67
45467;BME280;31212;49.734;8.490;2023-06-26T05:05:12;100125.53;;;18.85;70.19
45467;BME280;31212;49.734;8.490;2023-06-26T05:07:41;100109.25;;;19.01;69.66
45467;BME280;31212;49.734;8.490;2023-06-26T05:10:08;100107.69;;;19.19;69.46
45467;BME280;31212;49.734;8.490;2023-06-26T05:12:34;100100.06;;;19.35;69.11
45467;BME280;31212;49.734;8.490;2023-06-26T05:15:02;100114.28;;;19.53;69.50
45467;BME280;31212;49.734;8.490;2023-06-26T05:17:29;100119.66;;;19.73;69.16
45467;BME280;31212;49.734;8.490;2023-06-26T05:19:57;100091.97;;;19.85;68.44
45467;BME280;31212;49.734;8.490;2023-06-26T05:22:25;100065.38;;;19.91;67.58
45467;BME280;31212;49.734;8.490;2023-06-26T05:24:53;100050.66;;;20.08;66.80
45467;BME280;31212;49.734;8.490;2023-06-26T05:27:21;100024.38;;;20.27;65.80
45467;BME280;31212;49.734;8.490;2023-06-26T05:29:49;99994.81;;;20.39;65.12
45467;BME280;31212;49.734;8.490;2023-06-26T05:32:16;99981.03;;;20.53;64.10
45467;BME280;31212;49.734;8.490;2023-06-26T05:34:45;99976.72;;;20.71;63.90
45467;BME280;31212;49.734;8.490;2023-06-26T05:37:16;99979.44;;;20.89;63.58
45467;BME280;31212;49.734;8.490;2023-06-26T05:39:45;99917.16;;;21.04;61.98
45467;BME280;31212;49.734;8.490;2023-06-26T05:42:12;99904.44;;;21.12;61.47
45467;BME280;31212;49.734;8.490;2023-06-26T05:44:39;99880.25;;;21.21;60.71
45467;BME280;31212;49.734;8.490;2023-06-26T05:47:06;99868.38;;;21.30;60.26
45467;BME280;31212;49.734;8.490;2023-06-26T05:49:33;99867.28;;;21.51;60.11
45467;BME280;31212;49.734;8.490;2023-06-26T05:52:00;99867.84;;;21.76;59.83
45467;BME280;31212;49.734;8.490;2023-06-26T05:54:29;99834.69;;;21.86;59.10
45467;BME280;31212;49.734;8.490;2023-06-26T05:56:56;99806.06;;;21.94;58.28
45467;BME280;31212;49.734;8.490;2023-06-26T05:59:25;99814.03;;;22.10;58.00
45467;BME280;31212;49.734;8.490;2023-06-26T06:01:53;99817.28;;;22.31;57.55
45467;BME280;31212;49.734;8.490;2023-06-26T06:04:19;99788.66;;;22.40;56.74
45467;BME280;31212;49.734;8.490;2023-06-26T06:06:46;99782.75;;;22.50;56.61
45467;BME280;31212;49.734;8.490;2023-06-26T06:09:12;99754.91;;;22.59;55.87
45467;BME280;31212;49.734;8.490;2023-06-26T06:11:40;99775.22;;;22.75;56.01
45467;BME280;31212;49.734;8.490;2023-06-26T06:14:07;99780.69;;;23.02;55.68
45467;BME280;31212;49.734;8.490;2023-06-26T06:16:33;99760.63;;;23.14;55.06
45467;BME280;31212;49.734;8.490;2023-06-26T06:19:00;99712.50;;;23.22;54.07
45467;BME280;31212;49.734;8.490;2023-06-26T06:21:28;99734.25;;;23.41;54.16
45467;BME280;31212;49.734;8.490;2023-06-26T06:23:55;99694.06;;;23.49;53.30
45467;BME280;31212;49.734;8.490;2023-06-26T06:26:21;99724.50;;;23.71;53.65
45467;BME280;31212;49.734;8.490;2023-06-26T06:28:49;99688.72;;;23.92;52.60
45467;BME280;31212;49.734;8.490;2023-06-26T06:31:16;99681.56;;;24.07;52.17
45467;BME280;31212;49.734;8.490;2023-06-26T06:33:42;99649.72;;;24.22;51.46
45467;BME280;31212;49.734;8.490;2023-06-26T06:36:09;99625.03;;;24.47;50.70
45467;BME280;31212;49.734;8.490;2023-06-26T06:38:35;99617.44;;;24.68;50.10
45467;BME280;31212;49.734;8.490;2023-06-26T06:41:02;99616.72;;;24.92;49.45
45467;BME280;31212;49.734;8.490;2023-06-26T06:43:28;99601.72;;;25.16;48.96
45467;BME280;31212;49.734;8.490;2023-06-26T06:45:56;99570.03;;;25.26;47.98
45467;BME280;31212;49.734;8.490;2023-06-26T06:48:23;99575.28;;;25.52;48.23
45467;BME280;31212;49.734;8.490;2023-06-26T06:50:49;99578.81;;;25.77;47.85
45467;BME280;31212;49.734;8.490;2023-06-26T06:53:17;99545.22;;;25.76;47.34
45467;BME280;31212;49.734;8.490;2023-06-26T06:55:45;99568.09;;;26.02;46.80
45467;BME280;31212;49.734;8.490;2023-06-26T06:58:12;99505.72;;;26.18;45.56
45467;BME280;31212;49.734;8.490;2023-06-26T07:00:38;99477.97;;;26.45;44.65
45467;BME280;31212;49.734;8.490;2023-06-26T07:03:12;99469.66;;;27.27;43.71
45467;BME280;31212;49.734;8.490;2023-06-26T07:05:38;99438.31;;;28.06;42.71
45467;BME280;31212;49.734;8.490;2023-06-26T07:08:05;99469.84;;;28.43;41.55
45467;BME280;31212;49.734;8.490;2023-06-26T07:10:31;99421.16;;;28.60;40.52
45467;BME280;31212;49.734;8.490;2023-06-26T07:12:58;99367.28;;;29.35;38.83
45467;BME280;31212;49.734;8.490;2023-06-26T07:15:30;99332.19;;;30.15;37.34
45467;BME280;31212;49.734;8.490;2023-06-26T07:17:57;99302.41;;;30.92;36.74
45467;BME280;31212;49.734;8.490;2023-06-26T07:20:28;99287.91;;;31.65;35.41
45467;BME280;31212;49.734;8.490;2023-06-26T07:22:54;99240.03;;;32.21;34.38
45467;BME280;31212;49.734;8.490;2023-06-26T07:25:21;99254.38;;;33.04;33.78
45467;BME280;31212;49.734;8.490;2023-06-26T07:27:47;99199.41;;;33.40;32.47
45467;BME280;31212;49.734;8.490;2023-06-26T07:30:14;99194.88;;;33.88;31.57
45467;BME280;31212;49.734;8.490;2023-06-26T07:32:40;99189.91;;;33.60;31.61
45467;BME280;31212;49.734;8.490;2023-06-26T07:35:07;99174.75;;;33.59;31.42
45467;BME280;31212;49.734;8.490;2023-06-26T07:37:35;99189.41;;;33.65;31.43
45467;BME280;31212;49.734;8.490;2023-06-26T07:40:02;99177.28;;;33.69;31.00
45467;BME280;31212;49.734;8.490;2023-06-26T07:42:29;99211.84;;;34.20;30.60
45467;BME280;31212;49.734;8.490;2023-06-26T07:44:56;99195.03;;;34.18;30.55
45467;BME280;31212;49.734;8.490;2023-06-26T07:47:22;99220.44;;;34.47;30.32
45467;BME280;31212;49.734;8.490;2023-06-26T07:49:49;99228.66;;;34.53;30.97
45467;BME280;31212;49.734;8.490;2023-06-26T07:52:15;99216.06;;;34.92;29.84
45467;BME280;31212;49.734;8.490;2023-06-26T07:54:43;99193.22;;;35.18;29.77
45467;BME280;31212;49.734;8.490;2023-06-26T07:57:10;99210.75;;;35.37;29.33
45467;BME280;31212;49.734;8.490;2023-06-26T07:59:37;99258.09;;;34.86;30.71
45467;BME280;31212;49.734;8.490;2023-06-26T08:02:04;99261.69;;;35.17;30.10
45467;BME280;31212;49.734;8.490;2023-06-26T08:04:30;99270.31;;;35.65;29.90
45467;BME280;31212;49.734;8.490;2023-06-26T08:06:59;99257.81;;;36.09;29.67
45467;BME280;31212;49.734;8.490;2023-06-26T08:09:28;99211.97;;;36.52;28.94
45467;BME280;31212;49.734;8.490;2023-06-26T08:11:57;99227.06;;;36.90;28.37
45467;BME280;31212;49.734;8.490;2023-06-26T08:14:23;99208.19;;;37.60;28.12
45467;BME280;31212;49.734;8.490;2023-06-26T08:16:50;99200.00;;;36.68;28.57
45467;BME280;31212;49.734;8.490;2023-06-26T08:19:17;99206.16;;;36.56;28.33
45467;BME280;31212;49.734;8.490;2023-06-26T08:21:45;99184.56;;;35.82;28.83
45467;BME280;31212;49.734;8.490;2023-06-26T08:24:12;99213.84;;;37.30;27.71
45467;BME280;31212;49.734;8.490;2023-06-26T08:26:41;99172.88;;;36.55;28.08
45467;BME280;31212;49.734;8.490;2023-06-26T08:29:09;99230.66;;;35.36;29.39
45467;BME280;31212;49.734;8.490;2023-06-26T08:31:35;99279.28;;;34.66;30.57
45467;BME280;31212;49.734;8.490;2023-06-26T08:34:02;99295.06;;;33.50;31.68
45467;BME280;31212;49.734;8.490;2023-06-26T08:36:29;99384.34;;;33.70;32.68
45467;BME280;31212;49.734;8.490;2023-06-26T08:38:56;99360.41;;;34.48;31.97
45467;BME280;31212;49.734;8.490;2023-06-26T08:41:22;99340.28;;;34.59;31.21
45467;BME280;31212;49.734;8.490;2023-06-26T08:43:49;99315.53;;;35.10;30.30
45467;BME280;31212;49.734;8.490;2023-06-26T08:46:19;99271.91;;;35.90;29.43
45467;BME280;31212;49.734;8.490;2023-06-26T08:48:49;99305.47;;;36.32;28.96
45467;BME280;31212;49.734;8.490;2023-06-26T08:51:17;99278.00;;;37.08;28.49
45467;BME280;31212;49.734;8.490;2023-06-26T08:53:50;99239.50;;;37.13;28.14
45467;BME280;31212;49.734;8.490;2023-06-26T08:56:19;99241.38;;;36.41;28.12
45467;BME280;31212;49.734;8.490;2023-06-26T08:58:46;99222.84;;;35.71;28.27
45467;BME280;31212;49.734;8.490;2023-06-26T09:01:13;99265.03;;;35.04;29.19
45467;BME280;31212;49.734;8.490;2023-06-26T09:03:41;99225.06;;;34.84;29.32
45467;BME280;31212;49.734;8.490;2023-06-26T09:06:08;99246.00;;;34.51;29.53
45467;BME280;31212;49.734;8.490;2023-06-26T09:08:34;99256.63;;;34.21;30.17
45467;BME280;31212;49.734;8.490;2023-06-26T09:11:01;99306.03;;;35.14;30.07
45467;BME280;31212;49.734;8.490;2023-06-26T09:13:28;99307.66;;;35.77;29.09
45467;BME280;31212;49.734;8.490;2023-06-26T09:15:55;99236.53;;;35.69;28.60
45467;BME280;31212;49.734;8.490;2023-06-26T09:18:22;99294.63;;;35.50;29.20
45467;BME280;31212;49.734;8.490;2023-06-26T09:20:50;99276.31;;;36.27;28.72
45467;BME280;31212;49.734;8.490;2023-06-26T09:23:21;99232.69;;;36.30;27.88
45467;BME280;31212;49.734;8.490;2023-06-26T09:25:51;99277.78;;;36.08;28.79
45467;BME280;31212;49.734;8.490;2023-06-26T09:28:20;99274.06;;;36.46;28.29
45467;BME280;31212;49.734;8.490;2023-06-26T09:30:47;99231.31;;;36.78;27.49
45467;BME280;31212;49.734;8.490;2023-06-26T09:33:16;99249.34;;;36.49;27.90
45467;BME280;31212;49.734;8.490;2023-06-26T09:35:43;99288.25;;;36.91;27.98
45467;BME280;31212;49.734;8.490;2023-06-26T09:38:11;99317.34;;;37.61;28.22
45467;BME280;31212;49.734;8.490;2023-06-26T09:40:38;99253.38;;;37.60;27.29
45467;BME280;31212;49.734;8.490;2023-06-26T09:43:05;99292.78;;;37.62;27.62
45467;BME280;31212;49.734;8.490;2023-06-26T09:45:32;99210.78;;;37.40;26.43
45467;BME280;31212;49.734;8.490;2023-06-26T09:48:00;99245.09;;;35.88;28.72
45467;BME280;31212;49.734;8.490;2023-06-26T09:50:28;99316.19;;;34.26;31.02
45467;BME280;31212;49.734;8.490;2023-06-26T09:52:55;99366.88;;;33.25;32.08
45467;BME280;31212;49.734;8.490;2023-06-26T09:55:23;99434.72;;;32.51;33.60
45467;BME280;31212;49.734;8.490;2023-06-26T09:57:50;99487.16;;;32.64;34.16
45467;BME280;31212;49.734;8.490;2023-06-26T10:00:18;99466.75;;;33.55;33.50
45467;BME280;31212;49.734;8.490;2023-06-26T10:02:45;99458.81;;;33.20;33.25
45467;BME280;31212;49.734;8.490;2023-06-26T10:05:11;99503.44;;;32.62;34.37
45467;BME280;31212;49.734;8.490;2023-06-26T10:07:39;99518.19;;;31.87;35.24
45467;BME280;31212;49.734;8.490;2023-06-26T10:10:07;99555.66;;;31.97;35.40
45467;BME280;31212;49.734;8.490;2023-06-26T10:12:36;99571.13;;;31.77;35.90
45467;BME280;31212;49.734;8.490;2023-06-26T10:15:03;99576.19;;;31.52;36.55
45467;BME280;31212;49.734;8.490;2023-06-26T10:17:34;99599.94;;;32.29;35.71
45467;BME280;31212;49.734;8.490;2023-06-26T10:20:02;99560.53;;;33.25;34.19
45467;BME280;31212;49.734;8.490;2023-06-26T10:22:32;99488.25;;;34.29;31.92
45467;BME280;31212;49.734;8.490;2023-06-26T10:25:00;99463.06;;;34.06;32.16
45467;BME280;31212;49.734;8.490;2023-06-26T10:27:33;99469.78;;;33.77;32.44
45467;BME280;31212;49.734;8.490;2023-06-26T10:30:13;99541.09;;;34.63;33.01
45467;BME280;31212;49.734;8.490;2023-06-26T10:32:40;99459.19;;;34.08;32.08
45467;BME280;31212;49.734;8.490;2023-06-26T10:35:08;99463.00;;;33.23;32.71
45467;BME280;31212;49.734;8.490;2023-06-26T10:37:43;99500.56;;;33.41;33.13
45467;BME280;31212;49.734;8.490;2023-06-26T10:40:10;99506.53;;;33.18;33.40
45467;BME280;31212;49.734;8.490;2023-06-26T10:42:38;99521.13;;;33.92;33.26
45467;BME280;31212;49.734;8.490;2023-06-26T10:45:10;99476.88;;;33.61;32.53
45467;BME280;31212;49.734;8.490;2023-06-26T10:47:39;99522.81;;;33.93;33.05
45467;BME280;31212;49.734;8.490;2023-06-26T10:50:17;99471.28;;;34.77;31.69
45467;BME280;31212;49.734;8.490;2023-06-26T10:52:44;99437.91;;;34.78;31.38
45467;BME280;31212;49.734;8.490;2023-06-26T10:55:10;99422.06;;;34.51;31.07
45467;BME280;31212;49.734;8.490;2023-06-26T10:57:37;99469.22;;;35.50;30.67
45467;BME280;31212;49.734;8.490;2023-06-26T11:00:14;99405.84;;;36.29;29.27
45467;BME280;31212;49.734;8.490;2023-06-26T11:02:47;99395.25;;;36.94;29.45
45467;BME280;31212;49.734;8.490;2023-06-26T11:05:23;99303.31;;;37.50;27.18
45467;BME280;31212;49.734;8.490;2023-06-26T11:08:02;99264.59;;;37.50;27.09
45467;BME280;31212;49.734;8.490;2023-06-26T11:10:29;99273.97;;;35.87;28.59
45467;BME280;31212;49.734;8.490;2023-06-26T11:12:57;99347.28;;;33.89;31.10
45467;BME280;31212;49.734;8.490;2023-06-26T11:15:26;99437.00;;;33.40;32.60
45467;BME280;31212;49.734;8.490;2023-06-26T11:17:54;99413.09;;;34.03;31.52
45467;BME280;31212;49.734;8.490;2023-06-26T11:20:21;99400.94;;;35.64;30.32
45467;BME280;31212;49.734;8.490;2023-06-26T11:22:52;99352.09;;;37.07;28.61
45467;BME280;31212;49.734;8.490;2023-06-26T11:25:19;99340.66;;;37.55;27.95
45467;BME280;31212;49.734;8.490;2023-06-26T11:27:46;99309.84;;;37.63;27.28
45467;BME280;31212;49.734;8.490;2023-06-26T11:30:22;99253.53;;;37.23;27.29
45467;BME280;31212;49.734;8.490;2023-06-26T11:32:51;99314.91;;;36.36;28.86
45467;BME280;31212;49.734;8.490;2023-06-26T11:35:22;99294.09;;;35.85;28.72
45467;BME280;31212;49.734;8.490;2023-06-26T11:37:55;99306.50;;;34.48;29.91
45467;BME280;31212;49.734;8.490;2023-06-26T11:40:23;99379.31;;;33.43;31.86
45467;BME280;31212;49.734;8.490;2023-06-26T11:42:52;99434.44;;;33.22;32.62
45467;BME280;31212;49.734;8.490;2023-06-26T11:45:19;99472.00;;;33.65;32.65
45467;BME280;31212;49.734;8.490;2023-06-26T11:47:46;99433.78;;;33.69;31.64
45467;BME280;31212;49.734;8.490;2023-06-26T11:50:16;99431.59;;;33.32;32.32
45467;BME280;31212;49.734;8.490;2023-06-26T11:52:43;99384.22;;;33.47;31.25
45467;BME280;31212;49.734;8.490;2023-06-26T11:55:10;99367.56;;;33.27;31.59
45467;BME280;31212;49.734;8.490;2023-06-26T11:57:37;99429.16;;;33.04;32.34
45467;BME280;31212;49.734;8.490;2023-06-26T12:00:13;99437.72;;;32.57;32.89
45467;BME280;31212;49.734;8.490;2023-06-26T12:02:40;99472.06;;;32.36;33.69
45467;BME280;31212;49.734;8.490;2023-06-26T12:05:07;99500.66;;;32.01;34.14
45467;BME280;31212;49.734;8.490;2023-06-26T12:07:35;99475.06;;;31.89;34.02
45467;BME280;31212;49.734;8.490;2023-06-26T12:10:04;99469.84;;;32.06;33.49
45467;BME280;31212;49.734;8.490;2023-06-26T12:12:32;99468.25;;;32.47;32.80
45467;BME280;31212;49.734;8.490;2023-06-26T12:14:59;99476.22;;;32.57;33.09
45467;BME280;31212;49.734;8.490;2023-06-26T12:17:26;99456.72;;;32.55;32.89
45467;BME280;31212;49.734;8.490;2023-06-26T12:19:52;99420.94;;;32.20;32.81
45467;BME280;31212;49.734;8.490;2023-06-26T12:22:19;99417.31;;;32.29;32.46
45467;BME280;31212;49.734;8.490;2023-06-26T12:24:47;99414.97;;;32.08;32.26
45467;BME280;31212;49.734;8.490;2023-06-26T12:27:17;99393.63;;;32.25;31.96
45467;BME280;31212;49.734;8.490;2023-06-26T12:29:49;99423.63;;;32.54;31.91
45467;BME280;31212;49.734;8.490;2023-06-26T12:32:16;99397.72;;;32.80;31.36
45467;BME280;31212;49.734;8.490;2023-06-26T12:34:48;99379.50;;;33.33;30.98
45467;BME280;31212;49.734;8.490;2023-06-26T12:37:14;99344.63;;;32.82;30.70
45467;BME280;31212;49.734;8.490;2023-06-26T12:39:50;99288.13;;;32.14;30.45
45467;BME280;31212;49.734;8.490;2023-06-26T12:42:18;99322.81;;;31.47;31.80
45467;BME280;31212;49.734;8.490;2023-06-26T12:44:45;99350.69;;;31.54;31.90
45467;BME280;31212;49.734;8.490;2023-06-26T12:47:13;99344.59;;;31.88;31.29
45467;BME280;31212;49.734;8.490;2023-06-26T12:49:41;99328.09;;;32.60;30.49
45467;BME280;31212;49.734;8.490;2023-06-26T12:52:09;99328.19;;;33.10;30.18
45467;BME280;31212;49.734;8.490;2023-06-26T12:54:37;99287.19;;;33.97;28.83
45467;BME280;31212;49.734;8.490;2023-06-26T12:57:05;99275.28;;;33.91;28.60
45467;BME280;31212;49.734;8.490;2023-06-26T12:59:33;99247.97;;;33.54;28.44